Nearby METAR Reports

 

EGNT - Newcastle, United Kingdom
Distance from station: NNE 1mi, 2km
Updated: 24/06/2018 11:50
Clear
Clear
 Wind from WSW
Wind: WSW 9 mph , 15 km/h
Temperature: 21°C
Dew Point: 2°C
Humidity: 29%
Barometer: 1025 hPa
Summary: Clear
Visibility: greater than 7 miles , 10 km
2018/06/24 10:50 EGNT 241050Z 25008KT 220V290 CAVOK 21/02 Q1025
EGQM - Boulmer, United Kingdom
Distance from station: N 29mi, 47km
Updated: 24/06/2018 10:50
NOT Current
Clear
Clear
 Wind from SE
Wind: SE 10 mph , 17 km/h
Temperature: 18°C
Dew Point: 10°C
Humidity: 60%
Barometer: 1025 hPa
Clouds: Clear
Visibility: 6 miles , 10 km
2018/06/24 09:50 EGQM 240950Z AUTO 14009KT 9999 NCD 18/10 Q1025
 
EGOM - Spadeadam, United Kingdom
Distance from station: W 34mi, 54km
Updated: 24/06/2018 10:50
NOT Current
Clear
Clear
 Wind from W
Wind: W 12 mph , 19 km/h
Temperature: 16°C
Dew Point: 5°C
Humidity: 48%
Barometer: 1025 hPa
Clouds: Clear
Visibility: 6 miles , 10 km
2018/06/24 09:50 EGOM 240950Z AUTO 26010KT 9999 NCD 16/05 Q1025
EGNV - Tees-Side, United Kingdom
Distance from station: SSE 35mi, 57km
Updated: 24/06/2018 11:50
Clear
Clear
 Wind from varies
Wind: varies 6 mph , 9 km/h
Temperature: 19°C
Dew Point: 8°C
Humidity: 49%
Barometer: 1025 hPa
Summary: Clear
Visibility: greater than 7 miles , 10 km
2018/06/24 10:50 EGNV 241050Z VRB05KT CAVOK 19/08 Q1025
 
EGNC - Carlisle, United Kingdom
Distance from station: W 45mi, 72km
Updated: 04/06/2018 13:50
NOT Current
Mostly cloudy
Mostly cloudy
 Wind from E
Wind: E 9 mph , 15 km/h
Temperature: 16°C
Dew Point: 14°C
Humidity: 88%
Barometer: 1019 hPa
Clouds: Mostly cloudy
Visibility: 6 miles , 10 km
Cloud details: Few Clouds 366 m
Mostly cloudy 610 m
2018/06/04 12:50 EGNC 041250Z 08008KT 9999 FEW012 BKN020 16/14 Q1019
EGXE - Leeming Raf, United Kingdom
Distance from station: S 50mi, 81km
Updated: 24/06/2018 10:50
NOT Current
Clear
Clear
 Wind from SE
Wind: SE 3 mph , 6 km/h
Temperature: 19°C
Dew Point: 8°C
Humidity: 49%
Barometer: 1025 hPa
Clouds: Clear
Visibility: 6 miles , 10 km
2018/06/24 09:50 EGXE 240950Z AUTO 13003KT 9999 NCD 19/08 Q1025
 
EGXZ - Topcliffe Raf, United Kingdom
Distance from station: SSE 57mi, 91km
Updated: 24/06/2018 10:50
NOT Current
Clear
Clear
 Wind from SSE
Wind: SSE 5 mph , 7 km/h
Temperature: 19°C
Dew Point: 10°C
Humidity: 56%
Barometer: 1025 hPa
Clouds: Clear
Visibility: 6 miles , 10 km
2018/06/24 09:50 EGXZ 240950Z AUTO 15004KT 9999 NCD 19/10 Q1025
EGXU - Linton-On-Ouse R, United Kingdom
Distance from station: SSE 68mi, 110km
Updated: 24/06/2018 10:50
NOT Current
Clear
Clear
 Wind from SSE
Wind: SSE 3 mph , 6 km/h
Temperature: 19°C
Dew Point: 9°C
Humidity: 52%
Barometer: 1025 hPa
Clouds: Clear
Visibility: 6 miles , 10 km
2018/06/24 09:50 EGXU 240950Z AUTO 15003KT 9999 // NCD 19/09 Q1025
 
EGNM - Leeds And Bradfo, United Kingdom
Distance from station: S 78mi, 126km
Updated: 24/06/2018 11:50
Clear
Clear
 Wind from SW
Wind: SW 5 mph , 7 km/h
Temperature: 19°C
Dew Point: 7°C
Humidity: 46%
Barometer: 1026 hPa
Summary: Clear
Visibility: greater than 7 miles , 10 km
2018/06/24 10:50 EGNM 241050Z 23004KT 180V290 CAVOK 19/07 Q1026
EGPH - Edinburgh Airpor, United Kingdom
Distance from station: NW 92mi, 148km
Updated: 24/06/2018 11:20
Clear
Clear
 Wind from W
Wind: W 14 mph , 22 km/h
Temperature: 18°C
Dew Point: 7°C
Humidity: 49%
Barometer: 1025 hPa
Summary: Clear
Visibility: greater than 7 miles , 10 km
2018/06/24 10:20 EGPH 241020Z 26012KT CAVOK 18/07 Q1025
 
EGXV - Leconfield (aut), United Kingdom
Distance from station: SE 93mi, 150km
Updated: 24/06/2018 10:50
NOT Current
Clear
Clear
 Wind from WSW
Wind: WSW 6 mph , 9 km/h
Temperature: 19°C
Dew Point: 10°C
Humidity: 56%
Barometer: 1025 hPa
Clouds: Clear
Visibility: 6 miles , 10 km
2018/06/24 09:50 EGXV 240950Z AUTO 25005KT 9999 NCD 19/10 Q1025
EGNO - Wharton, United Kingdom
Distance from station: SSW 99mi, 159km
Updated: 22/06/2018 16:50
NOT Current
Few Clouds
Few Clouds
 Wind from NW
Wind: NW 14 mph , 22 km/h
Temperature: 16°C
Dew Point: 8°C
Humidity: 59%
Barometer: 1031 hPa
Clouds: Few Clouds
Visibility: 6 miles , 10 km
Cloud details: Few Clouds 1219 m
2018/06/22 15:50 EGNO 221550Z 31012KT 280V340 9999 FEW040 16/08 Q1031
 
EGNH - Blackpool Airpor, United Kingdom
Distance from station: SSW 100mi, 161km
Updated: 24/06/2018 11:50
Clear
Clear
 Wind from W
Wind: W 8 mph , 13 km/h
Temperature: 18°C
Dew Point: 12°C
Humidity: 68%
Barometer: 1026 hPa
Summary: Clear
Visibility: greater than 7 miles , 10 km
2018/06/24 10:50 EGNH 241050Z 27007KT 240V320 CAVOK 18/12 Q1026